• Join FlightAware (Why Join?)
  • Login
  • US Flag 
11:28AM EDT


 

Airport Tracker/Info


-or-


 

Live Flight TrackerFlight Track Log ✈ N337WR ✈ 23-Mar-2014 ✈ KASE - KSGR

Flight Track Log - Related Links

Times and Time Zones

All times are in EDT time to prevent confusion due to time zone crossing. See the N337WR flight status page for this flight to view local times or setup timezone preferences in your user account.

Time Position Orientation Groundspeed Altitude Reporting Facility
EDT Latitude Longitude Course Direction KTS MPH feet Rate Location/Type
02:32PM 39.3014 -106.9683 288° West 221 254 13,200  Level Denver Center
02:33PM 39.3250 -107.0600 288° West 261 300 14,900 1,800 Climbing Denver Center
02:34PM 39.2875 -107.1314 236° Southwest 285 328 17,000 1,140 Climbing Denver Center
02:35PM 39.1944 -107.0950 163° South 347 399 17,300 1,080 Climbing Denver Center
02:36PM 39.0792 -107.0858 176° South 355 409 19,300 1,740 Climbing Denver Center
02:37PM 38.9961 -107.0806 177° South 363 418 20,900 1,920 Climbing Denver Center
02:38PM 38.8647 -107.0606 173° South 382 440 23,300 2,040 Climbing Denver Center
02:39PM 38.7725 -106.9839 147° Southeast 402 463 25,200 1,740 Climbing Denver Center
02:40PM 38.6981 -106.8700 130° Southeast 412 474 27,000 1,680 Climbing Denver Center
02:42PM 38.5483 -106.6433 130° Southeast 416 479 30,500 1,560 Climbing Denver Center
02:43PM 38.4731 -106.5281 130° Southeast 418 481 31,900 1,440 Climbing Denver Center
02:44PM 38.3833 -106.3947 131° Southeast 415 478 33,600 1,140 Climbing Denver Center
02:45PM 38.3078 -106.2839 131° Southeast 414 476 34,300 660 Climbing Denver Center
02:46PM 38.2314 -106.1697 130° Southeast 421 484 35,000 900 Climbing Denver Center
02:48PM 38.1472 -106.0411 130° Southeast 425 489 36,200 900 Climbing Denver Center
02:49PM 38.0733 -105.9353 132° Southeast 422 486 36,900 360 Climbing Denver Center
02:50PM 37.9889 -105.8094 130° Southeast 418 481 37,000  Climbing Denver Center
02:51PM 37.9111 -105.6956 131° Southeast 435 501 37,000  Level Denver Center
02:52PM 37.8172 -105.5583 131° Southeast 459 528 37,000  Level Denver Center
02:53PM 37.7358 -105.4397 131° Southeast 466 536 37,000  Level Denver Center
02:54PM 37.6389 -105.3011 131° Southeast 471 542 37,100 360 Climbing Denver Center
02:55PM 37.5561 -105.1839 132° Southeast 469 540 37,800 540 Climbing Denver Center
02:56PM 37.4789 -105.0681 130° Southeast 458 527 38,300 540 Climbing Denver Center
02:57PM 37.3867 -104.9381 132° Southeast 448 516 39,000 300 Climbing Denver Center
02:58PM 37.3089 -104.8264 131° Southeast 445 512 39,000  Level Denver Center
02:59PM 37.2153 -104.6944 132° Southeast 450 518 39,000  Level Denver Center
03:00PM 37.1347 -104.5789 131° Southeast 458 527 39,000  Level Denver Center
03:01PM 37.0428 -104.4500 132° Southeast 450 518 39,000  Level Denver Center
03:02PM 36.9642 -104.3403 132° Southeast 449 517 39,000  Level Denver Center
03:03PM 36.8714 -104.2111 132° Southeast 448 516 39,000  Level Denver Center
03:04PM 36.7917 -104.0981 131° Southeast 449 517 39,000  Level Denver Center
03:05PM 36.6994 -103.9697 132° Southeast 448 516 39,000  Level Denver Center
03:06PM 36.6189 -103.8586 132° Southeast 448 516 39,000  Level Denver Center
03:08PM 36.4875 -103.6806 133° Southeast 456 525 39,000  Level Albuquerque Center
03:09PM 36.4025 -103.5639 132° Southeast 455 524 39,000  Level Albuquerque Center
03:10PM 36.3169 -103.4461 132° Southeast 455 524 39,000  Level Albuquerque Center
03:13PM 36.0433 -103.0753 133° Southeast 456 525 39,000  Level Albuquerque Center
03:14PM 35.9594 -102.9592 132° Southeast 452 520 39,000  Level Albuquerque Center
03:15PM 35.8703 -102.8397 133° Southeast 451 519 39,000  Level Albuquerque Center
03:17PM 35.7014 -102.6153 133° Southeast 450 518 39,000  Level Albuquerque Center
03:18PM 35.6167 -102.5025 133° Southeast 450 518 39,000  Level Albuquerque Center
03:19PM 35.5150 -102.3669 133° Southeast 450 518 39,000  Level Albuquerque Center
03:20PM 35.4297 -102.2553 133° Southeast 450 518 39,000  Level Albuquerque Center
03:21PM 35.3433 -102.1433 133° Southeast 450 518 39,000  Level Albuquerque Center
03:23PM 35.1681 -101.9133 133° Southeast 451 519 39,000  Level Albuquerque Center
03:24PM 35.0808 -101.8008 133° Southeast 452 520 39,000  Level Albuquerque Center
03:25PM 34.9964 -101.6867 132° Southeast 452 520 39,000  Level Albuquerque Center
03:27PM 34.7992 -101.4347 134° Southeast 453 521 39,000  Level Fort Worth Center
03:28PM 34.7136 -101.3236 133° Southeast 452 520 39,000  Level Albuquerque Center
03:29PM 34.6286 -101.2139 133° Southeast 451 519 39,000  Level Albuquerque Center
03:30PM 34.5419 -101.1044 134° Southeast 451 519 39,000  Level Albuquerque Center
03:31PM 34.4567 -100.9947 133° Southeast 451 519 39,000  Level Albuquerque Center
03:32PM 34.3703 -100.8867 134° Southeast 451 519 39,000  Level Albuquerque Center
03:34PM 34.2842 -100.7772 134° Southeast 450 518 39,000  Level Albuquerque Center
03:35PM 34.1819 -100.6478 134° Southeast 449 517 39,000  Level Albuquerque Center
03:36PM 34.0961 -100.5411 134° Southeast 448 516 39,000  Level Albuquerque Center
03:37PM 34.0000 -100.4233 135° Southeast 445 512 39,000  Level Fort Worth Center
03:38PM 33.9158 -100.3164 133° Southeast 444 511 39,000  Level Fort Worth Center
03:39PM 33.8294 -100.2128 135° Southeast 442 509 39,000  Level Fort Worth Center
03:40PM 33.7458 -100.1064 133° Southeast 441 507 39,000  Level Fort Worth Center
03:41PM 33.6442 -99.9814 134° Southeast 439 505 39,000  Level Fort Worth Center
03:42PM 33.5592 -99.8761 134° Southeast 439 505 39,000  Level Fort Worth Center
03:43PM 33.4736 -99.7708 134° Southeast 439 505 39,000  Level Fort Worth Center
03:44PM 33.3903 -99.6658 134° Southeast 436 502 39,000  Level Fort Worth Center
03:45PM 33.3083 -99.5547 131° Southeast 440 506 39,000  Level Fort Worth Center
03:46PM 33.2283 -99.4392 130° Southeast 446 513 39,000  Level Fort Worth Center
03:47PM 33.1486 -99.3253 130° Southeast 446 513 39,000  Level Fort Worth Center
03:48PM 33.0675 -99.2114 130° Southeast 446 513 39,000  Level Fort Worth Center
03:49PM 32.9714 -99.0750 130° Southeast 446 513 39,000  Level Fort Worth Center
03:50PM 32.8919 -98.9625 130° Southeast 445 512 39,000  Level Fort Worth Center
03:51PM 32.8122 -98.8503 130° Southeast 444 511 39,000  Level Fort Worth Center
03:52PM 32.7319 -98.7389 131° Southeast 443 510 39,000  Level Fort Worth Center
03:53PM 32.6519 -98.6272 130° Southeast 443 510 39,000  Level Fort Worth Center
03:54PM 32.5731 -98.5158 130° Southeast 442 509 39,000  Level Fort Worth Center
03:55PM 32.4758 -98.3828 131° Southeast 442 509 39,000  Level Fort Worth Center
03:56PM 32.3972 -98.2733 130° Southeast 441 507 39,000  Level Fort Worth Center
03:57PM 32.3169 -98.1628 131° Southeast 441 507 39,000  Level Fort Worth Center
03:58PM 32.2369 -98.0514 130° Southeast 443 510 39,000 -60 Level Fort Worth Center
04:00PM 32.1564 -97.9414 131° Southeast 445 512 38,900 -420 Descending Fort Worth Center
04:01PM 32.0756 -97.8289 130° Southeast 448 516 38,200 -900 Descending Fort Worth Center
04:02PM 31.9711 -97.6869 131° Southeast 478 550 37,100 -1,020 Descending Fort Worth Center
04:03PM 31.8831 -97.5689 131° Southeast 482 555 36,100 -1,020 Descending Fort Worth Center
04:04PM 31.7911 -97.4442 131° Southeast 493 567 35,100 -960 Descending Fort Worth Center
04:05PM 31.6983 -97.3169 131° Southeast 503 579 34,200 -540 Descending Fort Worth Center
04:06PM 31.5969 -97.2142 139° Southeast 480 552 34,000 -900 Descending Fort Worth Center
04:07PM 31.4961 -97.1347 146° Southeast 436 502 32,400 -2,520 Descending Fort Worth Center
04:08PM 31.3992 -97.0572 146° Southeast 422 486 28,800 -2,640 Descending Fort Worth Center
04:09PM 31.2903 -96.9692 145° Southeast 404 465 27,000 -1,260 Descending Fort Worth Center
04:10PM 31.1956 -96.8978 147° Southeast 401 461 26,300 -1,020 Descending Fort Worth Center
04:11PM 31.0969 -96.8317 150° Southeast 400 460 25,000 -1,380 Descending Fort Worth Center
04:12PM 30.9964 -96.7644 150° Southeast 407 468 23,500 -1,500 Descending Fort Worth Center
04:13PM 30.9019 -96.7011 150° Southeast 390 449 22,000 -1,500 Descending Fort Worth Center
04:14PM 30.8142 -96.6417 150° Southeast 364 419 20,500 -1,440 Descending Fort Worth Center
04:15PM 30.7300 -96.5858 150° Southeast 350 403 19,100 -1,260 Descending Fort Worth Center
04:16PM 30.6500 -96.5328 150° Southeast 335 386 17,900 -1,380 Descending Fort Worth Center
04:17PM 30.5736 -96.4792 149° Southeast 325 374 16,300 -1,680 Descending Fort Worth Center
04:18PM 30.4953 -96.4314 152° Southeast 318 366 14,500 -1,920 Descending Fort Worth Center
04:19PM 30.4108 -96.3739 150° Southeast 304 350 12,400 -1,680 Descending Fort Worth Center
04:20PM 30.3372 -96.3244 150° Southeast 302 348 11,100 -1,200 Descending Fort Worth Center
04:21PM 30.2686 -96.2844 153° Southeast 285 328 10,000 -1,320 Descending Fort Worth Center
04:22PM 30.1956 -96.2617 165° South 270 311 8,400 -1,620 Descending Fort Worth Center
04:24PM 30.0983 -96.2250 162° South 254 292 6,200 -1,500 Descending Houston Center
04:25PM 30.0308 -96.1964 160° South 259 298 5,000 -1,260 Descending Houston Center
04:25PM 30.0289 -96.1956 160° South 258 297 4,900 -120 Descending Houston Center
04:26PM 29.9633 -96.1572 153° Southeast 261 300 4,900 60 Level Houston Center
04:26PM 29.9578 -96.1539 153° Southeast 263 303 5,000  Climbing Houston Center
04:27PM 29.9000 -96.1147 150° Southeast 273 314 4,900 -120 Descending Houston Center
04:27PM 29.8992 -96.1128 116° Southeast 264 304 4,900 60 Level Houston Center
04:28PM 29.8289 -96.0697 152° Southeast 271 312 5,000  Climbing Houston Center
04:28PM 29.8325 -96.0692 North 269 310 4,900  Descending Houston Center
04:29PM 29.7664 -96.0264 151° Southeast 264 304 5,000  Climbing Houston Center
04:29PM 29.7700 -96.0264 360° North 268 308 4,900 -1,080 Descending Houston Center
04:30PM 29.7039 -95.9831 150° Southeast 263 303 3,900 -900 Descending Houston Center
04:30PM 29.7039 -95.9831 150° Southeast 267 307 4,000 -900 Climbing Houston Center
04:31PM 29.6331 -95.9406 152° Southeast 265 305 3,000 -1,020 Descending Houston Center
04:31PM 29.6386 -95.9439 332° Northwest 267 307 3,000  Level Houston Center
04:32PM 29.5878 -95.8786 132° Southeast 254 292 3,000 -120 Level Houston Center
04:32PM 29.5844 -95.8711 117° Southeast 253 291 2,900 -1,020 Descending Houston Center
04:33PM 29.5475 -95.8256 133° Southeast 247 284 2,100 -900 Descending Houston Center
04:33PM 29.5408 -95.8131 122° Southeast 247 284 2,000 -120 Descending Houston Center
04:34PM 29.5089 -95.7700 130° Southeast 182 209 2,000  Level Houston Center
04:34PM 29.5075 -95.7667 116° Southeast 202 232 2,000 -240 Level Houston Center
04:35PM 29.4753 -95.7211 129° Southeast 193 222 1,800 -240 Descending Houston Center
04:35PM 29.4739 -95.7194 134° Southeast 192 221 1,800  Level Houston Center
04:36PM 29.4514 -95.6664 116° Southeast 191 220 1,800 -120 Level Houston Center
04:36PM 29.4528 -95.6658 19° North 188 216 1,700  Descending Houston Center
04:37PM 29.4719 -95.6400 50° Northeast 159 183 1,800 60 Climbing Houston Center
04:37PM 29.4828 -95.6425 349° North 181 208 1,800  Level Houston Center
04:38PM 29.5211 -95.6486 352° North 169 194 1,800 -120 Level Houston Center
04:38PM 29.5289 -95.6483 North 170 196 1,700 -600 Descending Houston Center
04:39PM 29.5633 -95.6508 356° North 145 167 1,200 -600 Descending Houston Center
04:39PM 29.5706 -95.6514 356° North 162 186 1,100 -600 Descending Houston Center
04:40PM 29.5950 -95.6544 354° North 110 127 600 -600 Descending Houston Center
04:40PM 29.6022 -95.6550 356° North 139 160 500 -240 Descending Houston Center
04:41PM 29.6342 -95.6569 357° North 134 154 300 -240 Descending Houston Center